Terminal Aerodrome Forecast
Issued by NWS Wilmington, NC

Home | Current Version | Previous Version | Text Only | Print | Product List | Glossary On
Versions: 1 2 3 4 5 6 7 8 9 10 11 12 13 14 15 16 17 18 19 20 21 22
000
FTUS42 KILM 180100 AAA
TAFLBT
TAF AMD
KLBT 180144Z 1802/1824 VRB05KT P6SM -SHRA VCTS BKN040CB BKN100
     FM180300 04003KT P6SM SCT100
     FM180600 VRB02KT 4SM BR FEW004
     FM180900 VRB02KT 1SM BR BKN004
     FM181300 05005KT 6SM BR FEW006 BKN015
     FM181500 07006KT P6SM FEW030 SCT050=

USA.gov is the U.S. government's official web portal to all federal, state and local government web resources and services.